sensor_id;sensor_type;location;lat;lon;timestamp;pressure;altitude;pressure_sealevel;temperature;humidity
20394;BME280;10356;50.544;9.642;2024-03-23T00:55:09;97420.75;;;6.29;100.00
20394;BME280;10356;50.544;9.642;2024-03-23T00:57:35;97417.00;;;6.33;100.00
20394;BME280;10356;50.544;9.642;2024-03-23T01:00:00;97410.66;;;6.37;100.00
20394;BME280;10356;50.544;9.642;2024-03-23T01:02:27;97406.72;;;6.44;100.00
20394;BME280;10356;50.544;9.642;2024-03-23T01:04:53;97400.56;;;6.45;100.00
20394;BME280;10356;50.544;9.642;2024-03-23T01:07:19;97409.75;;;6.49;100.00
20394;BME280;10356;50.544;9.642;2024-03-23T01:09:45;97402.50;;;6.54;100.00
20394;BME280;10356;50.544;9.642;2024-03-23T01:12:12;97408.38;;;6.56;100.00
20394;BME280;10356;50.544;9.642;2024-03-23T01:14:39;97396.16;;;6.58;100.00
20394;BME280;10356;50.544;9.642;2024-03-23T01:17:05;97388.84;;;6.63;100.00
20394;BME280;10356;50.544;9.642;2024-03-23T01:19:31;97382.75;;;6.64;100.00
20394;BME280;10356;50.544;9.642;2024-03-23T01:21:57;97371.44;;;6.65;100.00
20394;BME280;10356;50.544;9.642;2024-03-23T01:24:23;97371.56;;;6.63;100.00
20394;BME280;10356;50.544;9.642;2024-03-23T01:26:49;97374.41;;;6.60;100.00
20394;BME280;10356;50.544;9.642;2024-03-23T01:29:16;97362.84;;;6.53;100.00
20394;BME280;10356;50.544;9.642;2024-03-23T01:31:43;97359.19;;;6.45;100.00
20394;BME280;10356;50.544;9.642;2024-03-23T01:34:08;97354.59;;;6.37;100.00
20394;BME280;10356;50.544;9.642;2024-03-23T01:36:35;97354.22;;;6.31;100.00
20394;BME280;10356;50.544;9.642;2024-03-23T01:39:00;97354.34;;;6.29;100.00
20394;BME280;10356;50.544;9.642;2024-03-23T01:41:26;97353.75;;;6.26;100.00
20394;BME280;10356;50.544;9.642;2024-03-23T01:43:54;97348.78;;;6.23;100.00
20394;BME280;10356;50.544;9.642;2024-03-23T01:46:23;97341.88;;;6.23;100.00
20394;BME280;10356;50.544;9.642;2024-03-23T01:48:49;97332.44;;;6.22;100.00
20394;BME280;10356;50.544;9.642;2024-03-23T01:51:16;97325.97;;;6.17;100.00
20394;BME280;10356;50.544;9.642;2024-03-23T01:53:41;97320.69;;;6.18;100.00
20394;BME280;10356;50.544;9.642;2024-03-23T01:56:08;97314.72;;;6.18;100.00
20394;BME280;10356;50.544;9.642;2024-03-23T01:58:34;97320.22;;;6.24;100.00
20394;BME280;10356;50.544;9.642;2024-03-23T02:01:00;97321.63;;;6.28;100.00
20394;BME280;10356;50.544;9.642;2024-03-23T02:03:27;97314.03;;;6.38;100.00
20394;BME280;10356;50.544;9.642;2024-03-23T02:05:54;97298.72;;;6.35;100.00
20394;BME280;10356;50.544;9.642;2024-03-23T02:08:22;97298.25;;;6.30;100.00
20394;BME280;10356;50.544;9.642;2024-03-23T02:10:49;97284.84;;;6.25;100.00
20394;BME280;10356;50.544;9.642;2024-03-23T02:13:17;97288.94;;;6.16;100.00
20394;BME280;10356;50.544;9.642;2024-03-23T02:15:44;97285.31;;;6.08;100.00
20394;BME280;10356;50.544;9.642;2024-03-23T02:18:10;97277.88;;;6.03;100.00
20394;BME280;10356;50.544;9.642;2024-03-23T02:20:38;97275.06;;;6.06;100.00
20394;BME280;10356;50.544;9.642;2024-03-23T02:23:05;97279.41;;;6.06;100.00
20394;BME280;10356;50.544;9.642;2024-03-23T02:25:32;97285.75;;;6.13;100.00
20394;BME280;10356;50.544;9.642;2024-03-23T02:27:57;97287.19;;;6.17;100.00
20394;BME280;10356;50.544;9.642;2024-03-23T02:30:24;97277.41;;;6.20;100.00
20394;BME280;10356;50.544;9.642;2024-03-23T02:32:50;97270.38;;;6.22;100.00
20394;BME280;10356;50.544;9.642;2024-03-23T02:35:16;97269.19;;;6.26;100.00
20394;BME280;10356;50.544;9.642;2024-03-23T02:37:42;97262.28;;;6.27;100.00
20394;BME280;10356;50.544;9.642;2024-03-23T02:40:10;97251.00;;;6.28;100.00
20394;BME280;10356;50.544;9.642;2024-03-23T02:42:35;97272.63;;;6.27;100.00
20394;BME280;10356;50.544;9.642;2024-03-23T02:45:02;97251.72;;;6.30;100.00
20394;BME280;10356;50.544;9.642;2024-03-23T02:47:30;97237.34;;;6.37;100.00
20394;BME280;10356;50.544;9.642;2024-03-23T02:49:56;97229.13;;;6.32;100.00
20394;BME280;10356;50.544;9.642;2024-03-23T02:52:22;97229.59;;;6.26;100.00
20394;BME280;10356;50.544;9.642;2024-03-23T02:54:48;97232.91;;;6.28;100.00
20394;BME280;10356;50.544;9.642;2024-03-23T02:57:15;97231.00;;;6.30;100.00
20394;BME280;10356;50.544;9.642;2024-03-23T02:59:41;97219.72;;;6.20;100.00
20394;BME280;10356;50.544;9.642;2024-03-23T03:02:07;97209.47;;;6.18;100.00
20394;BME280;10356;50.544;9.642;2024-03-23T03:04:33;97201.13;;;6.15;100.00
20394;BME280;10356;50.544;9.642;2024-03-23T03:06:59;97206.31;;;6.15;100.00
20394;BME280;10356;50.544;9.642;2024-03-23T03:09:26;97199.25;;;6.17;100.00
20394;BME280;10356;50.544;9.642;2024-03-23T03:11:51;97203.59;;;6.16;100.00
20394;BME280;10356;50.544;9.642;2024-03-23T03:14:19;97208.69;;;6.18;100.00
20394;BME280;10356;50.544;9.642;2024-03-23T03:16:45;97204.44;;;6.17;100.00
20394;BME280;10356;50.544;9.642;2024-03-23T03:19:11;97217.34;;;6.17;100.00
20394;BME280;10356;50.544;9.642;2024-03-23T03:21:37;97212.91;;;6.19;100.00
20394;BME280;10356;50.544;9.642;2024-03-23T03:24:06;97198.56;;;6.15;100.00
20394;BME280;10356;50.544;9.642;2024-03-23T03:26:32;97193.88;;;6.20;100.00
20394;BME280;10356;50.544;9.642;2024-03-23T03:28:58;97184.31;;;6.20;100.00
20394;BME280;10356;50.544;9.642;2024-03-23T03:31:25;97174.59;;;6.24;100.00
20394;BME280;10356;50.544;9.642;2024-03-23T03:33:52;97174.34;;;6.27;100.00
20394;BME280;10356;50.544;9.642;2024-03-23T03:36:17;97171.75;;;6.27;100.00
20394;BME280;10356;50.544;9.642;2024-03-23T03:38:44;97165.66;;;6.28;100.00
20394;BME280;10356;50.544;9.642;2024-03-23T03:41:09;97159.41;;;6.30;100.00
20394;BME280;10356;50.544;9.642;2024-03-23T03:43:35;97153.16;;;6.33;100.00
20394;BME280;10356;50.544;9.642;2024-03-23T03:46:02;97143.78;;;6.32;100.00
20394;BME280;10356;50.544;9.642;2024-03-23T03:48:30;97143.31;;;6.38;100.00
20394;BME280;10356;50.544;9.642;2024-03-23T03:50:55;97132.13;;;6.37;100.00
20394;BME280;10356;50.544;9.642;2024-03-23T03:53:22;97118.34;;;6.37;100.00
20394;BME280;10356;50.544;9.642;2024-03-23T03:55:47;97122.34;;;6.41;100.00
20394;BME280;10356;50.544;9.642;2024-03-23T03:58:14;97113.41;;;6.45;100.00
20394;BME280;10356;50.544;9.642;2024-03-23T04:00:39;97101.28;;;6.45;100.00
20394;BME280;10356;50.544;9.642;2024-03-23T04:03:06;97089.88;;;6.48;100.00
20394;BME280;10356;50.544;9.642;2024-03-23T04:05:33;97091.53;;;6.49;100.00
20394;BME280;10356;50.544;9.642;2024-03-23T04:07:59;97097.28;;;6.52;100.00
20394;BME280;10356;50.544;9.642;2024-03-23T04:10:25;97092.13;;;6.52;100.00
20394;BME280;10356;50.544;9.642;2024-03-23T04:12:52;97080.44;;;6.58;100.00
20394;BME280;10356;50.544;9.642;2024-03-23T04:15:17;97083.25;;;6.55;100.00
20394;BME280;10356;50.544;9.642;2024-03-23T04:17:44;97089.75;;;6.60;100.00
20394;BME280;10356;50.544;9.642;2024-03-23T04:20:10;97086.47;;;6.58;100.00
20394;BME280;10356;50.544;9.642;2024-03-23T04:22:40;97078.78;;;6.57;100.00
20394;BME280;10356;50.544;9.642;2024-03-23T04:25:06;97064.09;;;6.57;100.00
20394;BME280;10356;50.544;9.642;2024-03-23T04:27:32;97070.09;;;6.58;100.00
20394;BME280;10356;50.544;9.642;2024-03-23T04:29:58;97064.66;;;6.61;100.00
20394;BME280;10356;50.544;9.642;2024-03-23T04:32:26;97068.09;;;6.61;100.00
20394;BME280;10356;50.544;9.642;2024-03-23T04:34:51;97077.72;;;6.59;100.00
20394;BME280;10356;50.544;9.642;2024-03-23T04:37:18;97093.13;;;6.61;100.00
20394;BME280;10356;50.544;9.642;2024-03-23T04:39:46;97093.38;;;6.58;100.00
20394;BME280;10356;50.544;9.642;2024-03-23T04:42:14;97085.63;;;6.58;100.00
20394;BME280;10356;50.544;9.642;2024-03-23T04:44:41;97073.72;;;6.66;100.00
20394;BME280;10356;50.544;9.642;2024-03-23T04:47:06;97079.91;;;6.75;100.00
20394;BME280;10356;50.544;9.642;2024-03-23T04:49:33;97082.00;;;6.81;100.00
20394;BME280;10356;50.544;9.642;2024-03-23T04:52:02;97086.81;;;6.86;100.00
20394;BME280;10356;50.544;9.642;2024-03-23T04:54:28;97077.06;;;6.78;100.00
20394;BME280;10356;50.544;9.642;2024-03-23T04:56:56;97073.28;;;6.82;100.00
20394;BME280;10356;50.544;9.642;2024-03-23T04:59:22;97066.72;;;6.78;100.00
20394;BME280;10356;50.544;9.642;2024-03-23T05:01:48;97056.00;;;6.83;100.00
20394;BME280;10356;50.544;9.642;2024-03-23T05:04:13;97063.19;;;6.79;100.00
20394;BME280;10356;50.544;9.642;2024-03-23T05:06:40;97058.59;;;6.83;100.00
20394;BME280;10356;50.544;9.642;2024-03-23T05:09:05;97068.13;;;6.82;100.00
20394;BME280;10356;50.544;9.642;2024-03-23T05:11:32;97071.53;;;6.83;100.00
20394;BME280;10356;50.544;9.642;2024-03-23T05:14:00;97071.84;;;6.89;100.00
20394;BME280;10356;50.544;9.642;2024-03-23T05:16:28;97079.09;;;6.95;100.00
20394;BME280;10356;50.544;9.642;2024-03-23T05:18:54;97083.78;;;7.01;100.00
20394;BME280;10356;50.544;9.642;2024-03-23T05:21:21;97080.97;;;7.04;100.00
20394;BME280;10356;50.544;9.642;2024-03-23T05:23:46;97085.94;;;6.96;100.00
20394;BME280;10356;50.544;9.642;2024-03-23T05:26:13;97096.53;;;6.93;100.00
20394;BME280;10356;50.544;9.642;2024-03-23T05:28:39;97111.63;;;6.88;100.00
20394;BME280;10356;50.544;9.642;2024-03-23T05:31:06;97116.13;;;6.86;100.00
20394;BME280;10356;50.544;9.642;2024-03-23T05:33:34;97124.84;;;6.74;100.00
20394;BME280;10356;50.544;9.642;2024-03-23T05:36:01;97140.41;;;6.63;100.00
20394;BME280;10356;50.544;9.642;2024-03-23T05:38:27;97146.78;;;6.59;100.00
20394;BME280;10356;50.544;9.642;2024-03-23T05:40:54;97161.38;;;6.49;100.00
20394;BME280;10356;50.544;9.642;2024-03-23T05:43:20;97159.25;;;6.43;100.00
20394;BME280;10356;50.544;9.642;2024-03-23T05:45:53;97177.16;;;6.35;100.00
20394;BME280;10356;50.544;9.642;2024-03-23T05:48:20;97174.13;;;6.30;100.00
20394;BME280;10356;50.544;9.642;2024-03-23T05:50:46;97176.47;;;6.22;100.00
20394;BME280;10356;50.544;9.642;2024-03-23T05:53:12;97191.50;;;6.28;100.00
20394;BME280;10356;50.544;9.642;2024-03-23T05:55:39;97188.00;;;6.18;100.00
20394;BME280;10356;50.544;9.642;2024-03-23T05:58:04;97185.63;;;6.15;100.00
20394;BME280;10356;50.544;9.642;2024-03-23T06:00:31;97190.78;;;6.15;100.00
20394;BME280;10356;50.544;9.642;2024-03-23T06:02:56;97203.50;;;6.07;100.00
20394;BME280;10356;50.544;9.642;2024-03-23T06:05:24;97200.66;;;5.99;100.00
20394;BME280;10356;50.544;9.642;2024-03-23T06:07:50;97215.94;;;5.90;100.00
20394;BME280;10356;50.544;9.642;2024-03-23T06:10:16;97223.47;;;5.93;100.00
20394;BME280;10356;50.544;9.642;2024-03-23T06:12:42;97231.22;;;6.05;100.00
20394;BME280;10356;50.544;9.642;2024-03-23T06:15:09;97240.41;;;5.98;100.00
20394;BME280;10356;50.544;9.642;2024-03-23T06:17:35;97256.25;;;5.93;100.00
20394;BME280;10356;50.544;9.642;2024-03-23T06:20:03;97256.38;;;5.91;100.00
20394;BME280;10356;50.544;9.642;2024-03-23T06:22:30;97269.38;;;5.90;100.00
20394;BME280;10356;50.544;9.642;2024-03-23T06:24:56;97282.41;;;5.88;100.00
20394;BME280;10356;50.544;9.642;2024-03-23T06:27:22;97296.06;;;5.90;100.00
20394;BME280;10356;50.544;9.642;2024-03-23T06:29:48;97311.56;;;5.90;100.00
20394;BME280;10356;50.544;9.642;2024-03-23T06:32:14;97305.63;;;5.77;100.00
20394;BME280;10356;50.544;9.642;2024-03-23T06:34:41;97309.00;;;5.67;100.00
20394;BME280;10356;50.544;9.642;2024-03-23T06:37:06;97313.75;;;5.49;100.00
20394;BME280;10356;50.544;9.642;2024-03-23T06:39:36;97322.53;;;5.47;100.00
20394;BME280;10356;50.544;9.642;2024-03-23T06:42:02;97321.16;;;5.30;100.00
20394;BME280;10356;50.544;9.642;2024-03-23T06:44:29;97332.06;;;5.34;100.00
20394;BME280;10356;50.544;9.642;2024-03-23T06:46:55;97357.38;;;5.41;100.00
20394;BME280;10356;50.544;9.642;2024-03-23T06:49:22;97369.75;;;5.49;100.00
20394;BME280;10356;50.544;9.642;2024-03-23T06:51:48;97367.72;;;5.41;100.00
20394;BME280;10356;50.544;9.642;2024-03-23T06:54:16;97365.75;;;5.32;100.00
20394;BME280;10356;50.544;9.642;2024-03-23T06:56:43;97360.84;;;5.29;100.00
20394;BME280;10356;50.544;9.642;2024-03-23T06:59:10;97360.16;;;5.38;100.00
20394;BME280;10356;50.544;9.642;2024-03-23T07:01:36;97364.28;;;5.41;100.00
20394;BME280;10356;50.544;9.642;2024-03-23T07:04:02;97379.19;;;5.37;100.00
20394;BME280;10356;50.544;9.642;2024-03-23T07:06:29;97385.94;;;5.27;100.00
20394;BME280;10356;50.544;9.642;2024-03-23T07:08:56;97376.13;;;5.20;100.00
20394;BME280;10356;50.544;9.642;2024-03-23T07:11:22;97389.75;;;5.09;100.00
20394;BME280;10356;50.544;9.642;2024-03-23T07:13:51;97403.41;;;5.11;100.00
20394;BME280;10356;50.544;9.642;2024-03-23T07:16:17;97395.47;;;5.01;100.00
20394;BME280;10356;50.544;9.642;2024-03-23T07:18:44;97390.00;;;5.06;100.00
20394;BME280;10356;50.544;9.642;2024-03-23T07:21:09;97401.53;;;5.13;100.00
20394;BME280;10356;50.544;9.642;2024-03-23T07:23:36;97410.03;;;5.15;100.00
20394;BME280;10356;50.544;9.642;2024-03-23T07:26:02;97423.97;;;5.13;100.00
20394;BME280;10356;50.544;9.642;2024-03-23T07:28:29;97427.75;;;5.20;100.00
20394;BME280;10356;50.544;9.642;2024-03-23T07:31:03;97436.66;;;5.16;100.00
20394;BME280;10356;50.544;9.642;2024-03-23T07:33:30;97435.00;;;5.15;100.00
20394;BME280;10356;50.544;9.642;2024-03-23T07:35:55;97443.38;;;5.18;100.00
20394;BME280;10356;50.544;9.642;2024-03-23T07:38:23;97460.19;;;5.11;100.00
20394;BME280;10356;50.544;9.642;2024-03-23T07:40:49;97461.03;;;4.99;100.00
20394;BME280;10356;50.544;9.642;2024-03-23T07:43:20;97451.13;;;4.93;100.00
20394;BME280;10356;50.544;9.642;2024-03-23T07:45:51;97447.81;;;4.91;100.00
20394;BME280;10356;50.544;9.642;2024-03-23T07:48:21;97454.22;;;4.98;100.00
20394;BME280;10356;50.544;9.642;2024-03-23T07:50:56;97455.97;;;5.10;100.00
20394;BME280;10356;50.544;9.642;2024-03-23T07:53:22;97473.75;;;5.15;100.00
20394;BME280;10356;50.544;9.642;2024-03-23T07:55:53;97481.25;;;5.18;100.00
20394;BME280;10356;50.544;9.642;2024-03-23T07:58:20;97490.06;;;5.15;100.00
20394;BME280;10356;50.544;9.642;2024-03-23T08:00:45;97501.91;;;5.18;100.00
20394;BME280;10356;50.544;9.642;2024-03-23T08:03:12;97498.72;;;5.14;100.00
20394;BME280;10356;50.544;9.642;2024-03-23T08:05:39;97499.63;;;5.26;100.00
20394;BME280;10356;50.544;9.642;2024-03-23T08:08:06;97510.38;;;5.32;100.00
20394;BME280;10356;50.544;9.642;2024-03-23T08:10:31;97509.78;;;5.29;100.00
20394;BME280;10356;50.544;9.642;2024-03-23T08:12:58;97523.31;;;5.32;100.00
20394;BME280;10356;50.544;9.642;2024-03-23T08:15:23;97534.47;;;5.45;100.00
20394;BME280;10356;50.544;9.642;2024-03-23T08:17:50;97524.00;;;5.47;100.00
20394;BME280;10356;50.544;9.642;2024-03-23T08:20:15;97534.53;;;5.56;100.00
20394;BME280;10356;50.544;9.642;2024-03-23T08:22:43;97544.88;;;5.69;100.00
20394;BME280;10356;50.544;9.642;2024-03-23T08:25:09;97546.31;;;5.85;100.00
20394;BME280;10356;50.544;9.642;2024-03-23T08:27:35;97550.09;;;5.92;99.82
20394;BME280;10356;50.544;9.642;2024-03-23T08:30:01;97549.13;;;6.06;99.86
20394;BME280;10356;50.544;9.642;2024-03-23T08:32:27;97545.78;;;6.17;99.02
20394;BME280;10356;50.544;9.642;2024-03-23T08:34:53;97553.00;;;6.24;97.50
20394;BME280;10356;50.544;9.642;2024-03-23T08:37:20;97554.78;;;6.24;96.71
20394;BME280;10356;50.544;9.642;2024-03-23T08:39:52;97542.44;;;6.27;95.14
20394;BME280;10356;50.544;9.642;2024-03-23T08:42:19;97558.97;;;6.37;95.31
20394;BME280;10356;50.544;9.642;2024-03-23T08:44:46;97555.22;;;6.18;94.35
20394;BME280;10356;50.544;9.642;2024-03-23T08:47:14;97563.97;;;6.28;95.21
20394;BME280;10356;50.544;9.642;2024-03-23T08:49:40;97569.75;;;6.31;94.44
20394;BME280;10356;50.544;9.642;2024-03-23T08:52:07;97574.22;;;6.29;93.10
20394;BME280;10356;50.544;9.642;2024-03-23T08:54:32;97575.56;;;6.22;92.57
20394;BME280;10356;50.544;9.642;2024-03-23T08:57:00;97581.44;;;6.24;93.89
20394;BME280;10356;50.544;9.642;2024-03-23T08:59:26;97588.97;;;6.40;94.80
20394;BME280;10356;50.544;9.642;2024-03-23T09:01:53;97589.41;;;6.34;95.06
20394;BME280;10356;50.544;9.642;2024-03-23T09:04:19;97606.38;;;6.38;94.46
20394;BME280;10356;50.544;9.642;2024-03-23T09:06:46;97612.56;;;6.35;93.25
20394;BME280;10356;50.544;9.642;2024-03-23T09:09:12;97603.06;;;6.36;91.80
20394;BME280;10356;50.544;9.642;2024-03-23T09:11:38;97615.00;;;6.13;93.29
20394;BME280;10356;50.544;9.642;2024-03-23T09:14:05;97616.16;;;6.09;93.65
20394;BME280;10356;50.544;9.642;2024-03-23T09:16:32;97615.94;;;6.12;94.35
20394;BME280;10356;50.544;9.642;2024-03-23T09:18:57;97615.63;;;6.17;94.07
20394;BME280;10356;50.544;9.642;2024-03-23T09:21:24;97610.25;;;6.20;93.28
20394;BME280;10356;50.544;9.642;2024-03-23T09:23:49;97610.13;;;6.21;92.96
20394;BME280;10356;50.544;9.642;2024-03-23T09:26:16;97611.97;;;6.32;92.14
20394;BME280;10356;50.544;9.642;2024-03-23T09:28:44;97607.56;;;6.45;91.76
20394;BME280;10356;50.544;9.642;2024-03-23T09:31:12;97614.69;;;6.77;92.18
20394;BME280;10356;50.544;9.642;2024-03-23T09:33:40;97619.81;;;6.90;89.46
20394;BME280;10356;50.544;9.642;2024-03-23T09:36:07;97620.63;;;6.91;87.22
20394;BME280;10356;50.544;9.642;2024-03-23T09:38:34;97617.94;;;6.92;87.35
20394;BME280;10356;50.544;9.642;2024-03-23T09:41:00;97612.16;;;6.89;87.03
20394;BME280;10356;50.544;9.642;2024-03-23T09:43:26;97612.44;;;6.97;88.19
20394;BME280;10356;50.544;9.642;2024-03-23T09:45:53;97623.31;;;6.89;88.37
20394;BME280;10356;50.544;9.642;2024-03-23T09:48:20;97615.06;;;6.84;88.74
20394;BME280;10356;50.544;9.642;2024-03-23T09:50:47;97628.78;;;6.73;87.60
20394;BME280;10356;50.544;9.642;2024-03-23T09:53:14;97617.59;;;6.73;88.16
20394;BME280;10356;50.544;9.642;2024-03-23T09:55:42;97624.47;;;6.85;86.41
20394;BME280;10356;50.544;9.642;2024-03-23T09:58:08;97624.09;;;7.02;87.28
20394;BME280;10356;50.544;9.642;2024-03-23T10:00:40;97621.97;;;7.07;84.55
20394;BME280;10356;50.544;9.642;2024-03-23T10:03:06;97622.94;;;7.17;84.10
20394;BME280;10356;50.544;9.642;2024-03-23T10:05:35;97618.75;;;7.27;84.30
20394;BME280;10356;50.544;9.642;2024-03-23T10:08:17;97623.38;;;7.46;82.23
20394;BME280;10356;50.544;9.642;2024-03-23T10:10:48;97620.41;;;7.39;81.29
20394;BME280;10356;50.544;9.642;2024-03-23T10:13:24;97619.03;;;7.46;82.21
20394;BME280;10356;50.544;9.642;2024-03-23T10:15:58;97623.75;;;7.52;81.50
20394;BME280;10356;50.544;9.642;2024-03-23T10:18:24;97622.00;;;7.64;79.73
20394;BME280;10356;50.544;9.642;2024-03-23T10:21:06;97618.56;;;7.52;78.17
20394;BME280;10356;50.544;9.642;2024-03-23T10:23:32;97624.69;;;7.40;74.83
20394;BME280;10356;50.544;9.642;2024-03-23T10:26:12;97620.78;;;7.35;75.77
20394;BME280;10356;50.544;9.642;2024-03-23T10:28:50;97628.91;;;7.30;76.58
20394;BME280;10356;50.544;9.642;2024-03-23T10:31:17;97628.44;;;7.36;76.48
20394;BME280;10356;50.544;9.642;2024-03-23T10:33:44;97627.16;;;7.42;77.33
20394;BME280;10356;50.544;9.642;2024-03-23T10:36:14;97617.66;;;7.64;76.81
20394;BME280;10356;50.544;9.642;2024-03-23T10:38:40;97619.06;;;7.69;71.44
20394;BME280;10356;50.544;9.642;2024-03-23T10:41:08;97629.91;;;7.85;69.89
20394;BME280;10356;50.544;9.642;2024-03-23T10:43:35;97616.22;;;8.60;68.71
20394;BME280;10356;50.544;9.642;2024-03-23T10:46:02;97627.94;;;9.39;66.76
20394;BME280;10356;50.544;9.642;2024-03-23T10:48:28;97611.38;;;9.90;63.87
20394;BME280;10356;50.544;9.642;2024-03-23T10:50:54;97610.63;;;9.99;61.12
20394;BME280;10356;50.544;9.642;2024-03-23T10:53:25;97617.16;;;10.24;58.96
20394;BME280;10356;50.544;9.642;2024-03-23T10:55:52;97620.28;;;10.48;58.45
20394;BME280;10356;50.544;9.642;2024-03-23T10:58:23;97612.00;;;10.34;56.67
20394;BME280;10356;50.544;9.642;2024-03-23T11:00:51;97609.97;;;10.07;54.54
20394;BME280;10356;50.544;9.642;2024-03-23T11:03:30;97609.44;;;9.83;54.52
20394;BME280;10356;50.544;9.642;2024-03-23T11:05:55;97607.19;;;9.69;55.06
20394;BME280;10356;50.544;9.642;2024-03-23T11:08:34;97603.28;;;9.84;54.99
20394;BME280;10356;50.544;9.642;2024-03-23T11:11:14;97599.22;;;10.31;55.89
20394;BME280;10356;50.544;9.642;2024-03-23T11:13:40;97604.38;;;10.51;54.64
20394;BME280;10356;50.544;9.642;2024-03-23T11:16:16;97603.28;;;10.14;59.65
20394;BME280;10356;50.544;9.642;2024-03-23T11:18:43;97607.31;;;9.67;62.62
20394;BME280;10356;50.544;9.642;2024-03-23T11:21:10;97609.22;;;9.24;62.11
20394;BME280;10356;50.544;9.642;2024-03-23T11:23:38;97608.63;;;8.68;66.23
20394;BME280;10356;50.544;9.642;2024-03-23T11:26:07;97602.47;;;8.69;69.49
20394;BME280;10356;50.544;9.642;2024-03-23T11:28:33;97600.44;;;8.84;68.94
20394;BME280;10356;50.544;9.642;2024-03-23T11:30:59;97590.25;;;9.12;66.42
20394;BME280;10356;50.544;9.642;2024-03-23T11:33:26;97577.41;;;9.62;68.58
20394;BME280;10356;50.544;9.642;2024-03-23T11:35:51;97571.69;;;10.28;65.55
20394;BME280;10356;50.544;9.642;2024-03-23T11:38:18;97573.81;;;10.63;62.15
20394;BME280;10356;50.544;9.642;2024-03-23T11:40:46;97574.63;;;10.63;61.21
20394;BME280;10356;50.544;9.642;2024-03-23T11:43:17;97569.25;;;10.36;60.28
20394;BME280;10356;50.544;9.642;2024-03-23T11:45:44;97616.09;;;9.76;60.65
20394;BME280;10356;50.544;9.642;2024-03-23T11:48:12;97645.63;;;8.38;70.23
20394;BME280;10356;50.544;9.642;2024-03-23T11:50:39;97651.72;;;7.25;77.90
20394;BME280;10356;50.544;9.642;2024-03-23T11:53:13;97648.22;;;6.79;82.66
20394;BME280;10356;50.544;9.642;2024-03-23T11:55:44;97634.63;;;6.64;86.66
20394;BME280;10356;50.544;9.642;2024-03-23T11:58:12;97636.03;;;6.45;87.90
20394;BME280;10356;50.544;9.642;2024-03-23T12:00:38;97633.13;;;6.73;90.44
20394;BME280;10356;50.544;9.642;2024-03-23T12:03:05;97619.88;;;7.12;90.88
20394;BME280;10356;50.544;9.642;2024-03-23T12:05:31;97627.78;;;7.79;90.39
20394;BME280;10356;50.544;9.642;2024-03-23T12:08:16;97615.56;;;8.14;89.80
20394;BME280;10356;50.544;9.642;2024-03-23T12:10:44;97609.19;;;8.29;85.60
20394;BME280;10356;50.544;9.642;2024-03-23T12:13:14;97604.56;;;8.21;83.36
20394;BME280;10356;50.544;9.642;2024-03-23T12:15:40;97604.47;;;8.34;83.57
20394;BME280;10356;50.544;9.642;2024-03-23T12:18:07;97600.34;;;8.74;84.35
20394;BME280;10356;50.544;9.642;2024-03-23T12:20:33;97596.63;;;8.88;77.07
20394;BME280;10356;50.544;9.642;2024-03-23T12:23:05;97607.34;;;8.94;77.25
20394;BME280;10356;50.544;9.642;2024-03-23T12:25:31;97600.97;;;9.40;80.32
20394;BME280;10356;50.544;9.642;2024-03-23T12:27:58;97596.59;;;9.61;74.72
20394;BME280;10356;50.544;9.642;2024-03-23T12:30:25;97599.88;;;9.21;71.29
20394;BME280;10356;50.544;9.642;2024-03-23T12:32:52;97598.25;;;9.20;74.95
20394;BME280;10356;50.544;9.642;2024-03-23T12:35:17;97598.28;;;9.41;74.80
20394;BME280;10356;50.544;9.642;2024-03-23T12:37:44;97589.91;;;9.98;70.80
20394;BME280;10356;50.544;9.642;2024-03-23T12:40:10;97578.84;;;10.45;70.77
20394;BME280;10356;50.544;9.642;2024-03-23T12:42:37;97590.69;;;10.87;69.15
20394;BME280;10356;50.544;9.642;2024-03-23T12:45:03;97590.25;;;10.63;67.59
20394;BME280;10356;50.544;9.642;2024-03-23T12:47:31;97597.59;;;10.30;66.07
20394;BME280;10356;50.544;9.642;2024-03-23T12:49:56;97610.81;;;9.57;67.31
20394;BME280;10356;50.544;9.642;2024-03-23T12:52:23;97603.50;;;9.30;69.63
20394;BME280;10356;50.544;9.642;2024-03-23T12:54:53;97609.00;;;8.95;72.38
20394;BME280;10356;50.544;9.642;2024-03-23T12:57:21;97628.50;;;8.58;75.45
20394;BME280;10356;50.544;9.642;2024-03-23T12:59:47;97631.34;;;8.33;74.88
20394;BME280;10356;50.544;9.642;2024-03-23T13:02:16;97607.41;;;7.96;77.15
20394;BME280;10356;50.544;9.642;2024-03-23T13:04:43;97591.97;;;7.95;78.11
20394;BME280;10356;50.544;9.642;2024-03-23T13:07:09;97583.59;;;7.91;78.52
20394;BME280;10356;50.544;9.642;2024-03-23T13:09:35;97589.63;;;7.92;76.19
20394;BME280;10356;50.544;9.642;2024-03-23T13:12:02;97603.97;;;8.07;77.54
20394;BME280;10356;50.544;9.642;2024-03-23T13:14:27;97596.53;;;8.24;76.20
20394;BME280;10356;50.544;9.642;2024-03-23T13:16:54;97593.59;;;8.18;74.32
20394;BME280;10356;50.544;9.642;2024-03-23T13:19:19;97585.13;;;8.27;72.87
20394;BME280;10356;50.544;9.642;2024-03-23T13:21:51;97599.38;;;8.21;72.40
20394;BME280;10356;50.544;9.642;2024-03-23T13:24:17;97597.84;;;8.19;72.28
20394;BME280;10356;50.544;9.642;2024-03-23T13:26:43;97598.56;;;8.10;71.56
20394;BME280;10356;50.544;9.642;2024-03-23T13:29:09;97603.97;;;8.07;72.84
20394;BME280;10356;50.544;9.642;2024-03-23T13:31:35;97608.94;;;7.99;72.37
20394;BME280;10356;50.544;9.642;2024-03-23T13:34:01;97618.50;;;7.87;69.99
20394;BME280;10356;50.544;9.642;2024-03-23T13:36:27;97617.75;;;7.74;71.67
20394;BME280;10356;50.544;9.642;2024-03-23T13:38:54;97622.56;;;7.45;72.58
20394;BME280;10356;50.544;9.642;2024-03-23T13:41:21;97627.84;;;7.33;74.25
20394;BME280;10356;50.544;9.642;2024-03-23T13:43:46;97640.38;;;7.15;75.21
20394;BME280;10356;50.544;9.642;2024-03-23T13:46:13;97641.00;;;6.95;79.10
20394;BME280;10356;50.544;9.642;2024-03-23T13:48:38;97648.78;;;6.71;82.07
20394;BME280;10356;50.544;9.642;2024-03-23T13:51:07;97650.81;;;6.55;84.72
20394;BME280;10356;50.544;9.642;2024-03-23T13:53:33;97656.00;;;6.43;85.48
20394;BME280;10356;50.544;9.642;2024-03-23T13:56:00;97637.19;;;6.41;88.13
20394;BME280;10356;50.544;9.642;2024-03-23T13:58:26;97646.09;;;6.37;89.59